Time;durP1;ratioP1;P1;durP2;ratioP2;P2;SDS_P1;SDS_P2;PMS_P1;PMS_P2;Temp;Humidity;BMP_temperature;BMP_pressure;BME280_temperature;BME280_humidity;BME280_pressure;Samples;Min_cycle;Max_cycle;Signal;HPM_P1;HPM_P2
2023/05/08 00:02:19;;;;;;;;;14.67;13.67;;;;;17.13;66.39;101378.59;4958539;28;58518;-60
2023/05/08 00:04:44;;;;;;;;;14.33;14.33;;;;;17.10;66.43;101370.78;4959337;28;45510;-60
2023/05/08 00:07:09;;;;;;;;;11.67;11.67;;;;;17.10;66.30;101370.78;4958859;28;45508;-60
2023/05/08 00:09:35;;;;;;;;;13.67;13.67;;;;;17.07;66.47;101373.59;4956075;28;63231;-61
2023/05/08 00:12:00;;;;;;;;;11.33;11.33;;;;;17.06;66.57;101378.97;4959048;28;45404;-60
2023/05/08 00:14:25;;;;;;;;;12.00;12.00;;;;;16.99;66.35;101371.31;4958895;28;45410;-61
2023/05/08 00:16:51;;;;;;;;;15.00;12.67;;;;;17.05;66.06;101377.25;4958789;28;49661;-60
2023/05/08 00:19:16;;;;;;;;;11.33;10.33;;;;;16.97;66.49;101374.97;4958615;28;46597;-61
2023/05/08 00:21:41;;;;;;;;;14.00;14.00;;;;;16.97;66.84;101373.19;4958803;28;45328;-60
2023/05/08 00:24:07;;;;;;;;;12.00;10.33;;;;;16.96;66.50;101378.59;4958335;28;53608;-61
2023/05/08 00:26:32;;;;;;;;;12.67;12.67;;;;;16.92;66.33;101375.19;4958588;28;45380;-60
2023/05/08 00:28:57;;;;;;;;;12.33;12.33;;;;;16.91;66.28;101375.28;4957826;28;45949;-61
2023/05/08 00:31:23;;;;;;;;;13.67;13.67;;;;;16.86;66.73;101374.66;4956877;28;51649;-61
2023/05/08 00:33:48;;;;;;;;;10.67;10.67;;;;;16.86;66.13;101367.53;4958543;28;45331;-60
2023/05/08 00:36:14;;;;;;;;;12.33;12.33;;;;;16.86;66.11;101370.19;4958666;28;45500;-60
2023/05/08 00:38:40;;;;;;;;;12.33;11.67;;;;;16.78;66.37;101362.59;4952972;28;45607;-61
2023/05/08 00:41:05;;;;;;;;;8.33;8.00;;;;;16.78;66.73;101356.44;4957343;28;45487;-60
2023/05/08 00:43:31;;;;;;;;;13.67;13.00;;;;;16.82;66.48;101368.63;4957580;28;45467;-60
2023/05/08 00:46:00;;;;;;;;;12.00;10.67;;;;;16.81;66.16;101361.59;4956755;28;45623;-54
2023/05/08 00:48:29;;;;;;;;;13.33;12.00;;;;;16.73;66.25;101347.78;4955319;28;46628;-59
2023/05/08 00:50:55;;;;;;;;;13.33;13.33;;;;;16.78;66.44;101359.09;4958160;28;45444;-64
2023/05/08 00:53:22;;;;;;;;;11.33;11.33;;;;;16.77;66.15;101365.34;4958442;28;45449;-62
2023/05/08 00:55:49;;;;;;;;;12.67;12.67;;;;;16.75;66.37;101365.38;4957875;28;45487;-62
2023/05/08 00:58:15;;;;;;;;;12.33;12.33;;;;;16.75;66.19;101361.88;4957833;28;45521;-64
2023/05/08 01:00:42;;;;;;;;;12.00;12.00;;;;;16.71;66.54;101353.19;4957600;28;45439;-62
2023/05/08 01:03:08;;;;;;;;;13.00;12.00;;;;;16.68;65.98;101348.00;4953838;28;45451;-60
2023/05/08 01:05:35;;;;;;;;;12.67;12.67;;;;;16.70;66.34;101355.91;4955977;28;45493;-56
2023/05/08 01:08:00;;;;;;;;;13.33;11.67;;;;;16.64;66.22;101342.94;4957440;28;46033;-53
2023/05/08 01:10:35;;;;;;;;;13.67;13.67;;;;;16.68;66.18;101353.31;4951424;28;45475;-56
2023/05/08 01:13:16;;;;;;;;;11.00;10.67;;;;;16.68;66.30;101350.66;4957976;28;45522;-56
2023/05/08 01:15:57;;;;;;;;;15.00;13.00;;;;;16.68;66.19;101349.81;4957144;28;45471;-55
2023/05/08 01:18:41;;;;;;;;;14.33;14.33;;;;;16.67;66.22;101356.91;4958157;28;45951;-55
2023/05/08 01:21:16;;;;;;;;;13.33;10.67;;;;;16.62;66.43;101366.91;4957960;28;45431;-55
2023/05/08 01:24:05;;;;;;;;;13.00;13.00;;;;;16.61;66.11;101365.19;4958252;28;45474;-56
2023/05/08 01:26:46;;;;;;;;;11.67;11.67;;;;;16.59;66.47;101368.84;4947721;28;45436;-55
2023/05/08 01:29:42;;;;;;;;;16.67;14.67;;;;;16.56;66.15;101375.19;4957881;28;46259;-56
2023/05/08 01:32:14;;;;;;;;;14.67;14.67;;;;;16.47;66.87;101364.97;4958284;28;45575;-55
2023/05/08 01:34:48;;;;;;;;;14.33;12.67;;;;;16.45;66.46;101366.88;4958363;28;45447;-56
2023/05/08 01:37:18;;;;;;;;;12.33;12.33;;;;;16.43;66.29;101369.56;4958140;28;45504;-55
2023/05/08 01:40:05;;;;;;;;;13.00;13.00;;;;;16.47;66.70;101373.81;4957519;28;46430;-55
2023/05/08 01:42:52;;;;;;;;;15.33;15.33;;;;;16.42;66.33;101359.06;4958093;28;45412;-55
2023/05/08 01:45:31;;;;;;;;;18.67;15.67;;;;;16.41;66.52;101362.63;4957679;28;45419;-55
2023/05/08 01:48:09;;;;;;;;;13.67;13.67;;;;;16.40;66.83;101367.06;4953632;28;45445;-55
2023/05/08 01:50:41;;;;;;;;;13.33;12.67;;;;;16.36;67.04;101368.13;4948644;28;45490;-56
2023/05/08 01:53:20;;;;;;;;;15.33;15.33;;;;;16.37;67.24;101377.00;4956855;28;45537;-54
2023/05/08 01:55:48;;;;;;;;;13.67;13.67;;;;;16.35;67.24;101369.09;4957986;28;45438;-54
2023/05/08 01:58:15;;;;;;;;;13.00;13.00;;;;;16.34;67.12;101373.53;4957865;28;45513;-56
2023/05/08 02:00:42;;;;;;;;;14.67;14.00;;;;;16.33;66.91;101370.94;4948415;28;45508;-55
2023/05/08 02:03:10;;;;;;;;;19.00;17.00;;;;;16.34;66.88;101375.34;4951913;28;45549;-54
2023/05/08 02:05:37;;;;;;;;;15.00;14.00;;;;;16.32;67.56;101369.22;4957734;28;45460;-54
2023/05/08 02:08:03;;;;;;;;;13.67;13.67;;;;;16.31;67.10;101367.53;4957670;28;45292;-56
2023/05/08 02:10:29;;;;;;;;;14.67;14.33;;;;;16.31;67.21;101375.47;4957533;28;45400;-56
2023/05/08 02:12:58;;;;;;;;;18.67;16.33;;;;;16.31;66.70;101380.78;4956746;28;45485;-55
2023/05/08 02:15:26;;;;;;;;;18.67;15.67;;;;;16.29;67.21;101377.34;4958139;28;45470;-55
2023/05/08 02:17:54;;;;;;;;;17.33;17.33;;;;;16.27;67.11;101377.41;4957213;28;45518;-56
2023/05/08 02:20:21;;;;;;;;;19.33;19.33;;;;;16.29;67.07;101380.84;4955037;28;47979;-56
2023/05/08 02:22:50;;;;;;;;;15.00;15.00;;;;;16.29;67.42;101382.66;4957396;28;45427;-56
2023/05/08 02:25:17;;;;;;;;;21.67;18.00;;;;;16.30;67.66;101381.72;4957224;28;45443;-56
2023/05/08 02:27:45;;;;;;;;;20.67;17.33;;;;;16.31;67.63;101375.47;4953042;28;45563;-55
2023/05/08 02:30:15;;;;;;;;;21.33;20.33;;;;;16.28;66.87;101381.78;4955644;28;46799;-56
2023/05/08 02:32:47;;;;;;;;;19.33;19.33;;;;;16.25;66.99;101387.22;4957203;28;45859;-55
2023/05/08 02:35:17;;;;;;;;;18.33;17.00;;;;;16.19;67.53;101374.25;4957107;28;45347;-55
2023/05/08 02:37:50;;;;;;;;;19.67;19.33;;;;;16.23;67.63;101380.28;4955916;28;45394;-56
2023/05/08 02:40:16;;;;;;;;;22.00;20.33;;;;;16.25;67.28;101378.41;4957067;28;46169;-55
2023/05/08 02:42:43;;;;;;;;;22.67;21.00;;;;;16.23;67.51;101377.63;4947059;28;45459;-56
2023/05/08 02:45:11;;;;;;;;;22.33;20.00;;;;;16.17;67.57;101378.75;4955622;28;45403;-56
2023/05/08 02:47:51;;;;;;;;;21.00;21.00;;;;;16.11;67.16;101371.94;4956882;28;45528;-53
2023/05/08 02:50:26;;;;;;;;;23.00;22.67;;;;;16.11;67.44;101379.03;4956969;28;45394;-53
2023/05/08 02:52:56;;;;;;;;;23.00;23.00;;;;;16.06;67.06;101373.94;4955748;28;45478;-56
2023/05/08 02:55:51;;;;;;;;;23.33;21.33;;;;;16.05;67.37;101387.28;4955828;28;45521;-55
2023/05/08 02:58:39;;;;;;;;;21.67;21.33;;;;;16.02;67.71;101383.00;4955932;28;45507;-54
2023/05/08 03:01:12;;;;;;;;;20.33;20.33;;;;;15.97;68.09;101378.81;4956487;28;46129;-54
2023/05/08 03:03:39;;;;;;;;;22.33;20.67;;;;;15.94;67.75;101385.13;4957002;28;45545;-54
2023/05/08 03:06:12;;;;;;;;;28.67;28.00;;;;;15.89;67.97;101389.78;4956966;28;45399;-56
2023/05/08 03:08:39;;;;;;;;;24.67;22.00;;;;;15.85;68.52;101375.81;4956660;28;45507;-54
2023/05/08 03:11:11;;;;;;;;;28.67;25.33;;;;;15.89;67.94;101376.50;4955635;28;46465;-55
2023/05/08 03:13:39;;;;;;;;;29.33;27.33;;;;;15.87;68.59;101373.91;4956647;28;45534;-56
2023/05/08 03:16:09;;;;;;;;;23.33;22.33;;;;;15.88;68.02;101380.09;4957417;28;45471;-55
2023/05/08 03:18:41;;;;;;;;;29.67;29.33;;;;;15.87;68.44;101373.91;4956480;28;45395;-54
2023/05/08 03:21:12;;;;;;;;;29.67;27.67;;;;;15.90;67.61;101378.22;4956409;28;46464;-53
2023/05/08 03:23:39;;;;;;;;;27.33;23.00;;;;;15.88;67.51;101375.66;4943536;28;45514;-55
2023/05/08 03:26:06;;;;;;;;;27.67;27.00;;;;;15.79;67.46;101361.94;4956554;28;45355;-56
2023/05/08 03:28:34;;;;;;;;;21.33;20.00;;;;;15.79;68.19;101373.41;4955022;28;45516;-56
2023/05/08 03:31:01;;;;;;;;;22.00;22.00;;;;;15.76;67.90;101373.53;4952077;28;45534;-54
2023/05/08 03:33:28;;;;;;;;;26.00;25.00;;;;;15.78;67.51;101379.66;4952790;28;45453;-55
2023/05/08 03:35:55;;;;;;;;;24.00;23.33;;;;;15.77;68.01;101379.69;4958597;28;45506;-55
2023/05/08 03:38:21;;;;;;;;;24.00;24.00;;;;;15.76;67.48;101381.50;4959799;28;45434;-55
2023/05/08 03:40:48;;;;;;;;;20.67;20.00;;;;;15.74;68.21;101371.88;4959710;28;46338;-56
2023/05/08 03:43:15;;;;;;;;;26.33;25.00;;;;;15.74;68.49;101383.34;4959966;28;45447;-55
2023/05/08 03:45:40;;;;;;;;;21.50;21.00;;;;;15.76;68.36;101385.94;4958732;28;45501;-56
2023/05/08 03:48:08;;;;;;;;;29.67;26.67;;;;;15.78;67.21;101376.13;4974655;28;45600;-54
2023/05/08 03:50:34;;;;;;;;;28.00;27.00;;;;;15.74;68.03;101377.19;4959626;28;45496;-54
2023/05/08 03:53:01;;;;;;;;;27.33;27.33;;;;;15.74;67.95;101385.16;4959491;28;45498;-56
2023/05/08 03:55:26;;;;;;;;;33.33;29.33;;;;;15.72;67.59;101373.78;4959910;28;45325;-56
2023/05/08 03:58:27;;;;;;;;;27.67;27.67;;;;;15.70;67.49;101381.78;4958283;28;45704;-56
2023/05/08 04:01:07;;;;;;;;;32.33;31.33;;;;;15.73;67.96;101380.78;4953018;28;45634;-53
2023/05/08 04:03:33;;;;;;;;;35.00;31.33;;;;;15.70;67.26;101379.13;4950305;28;45404;-55
2023/05/08 04:06:15;;;;;;;;;26.33;26.33;;;;;15.68;66.90;101373.00;4953837;28;45466;-55
2023/05/08 04:08:47;;;;;;;;;24.67;24.67;;;;;15.69;67.44;101377.41;4959708;28;45317;-56
2023/05/08 04:11:25;;;;;;;;;28.33;27.33;;;;;15.59;67.33;101363.66;4959429;28;46587;-54
2023/05/08 04:14:05;;;;;;;;;29.00;28.00;;;;;15.63;66.87;101370.53;4959317;28;45432;-55
2023/05/08 04:16:38;;;;;;;;;33.00;29.33;;;;;15.66;67.68;101369.53;4974393;28;45530;-55
2023/05/08 04:19:14;;;;;;;;;27.67;25.67;;;;;15.65;67.83;101366.03;4958867;28;45478;-56
2023/05/08 04:21:42;;;;;;;;;28.00;27.00;;;;;15.65;67.66;101370.47;4958023;28;46213;-56
2023/05/08 04:24:11;;;;;;;;;28.33;28.33;;;;;15.61;67.32;101361.81;4957713;28;45522;-55
2023/05/08 04:26:37;;;;;;;;;29.33;28.33;;;;;15.61;66.43;101360.97;4958024;28;45396;-52
2023/05/08 04:29:05;;;;;;;;;28.33;28.33;;;;;15.62;67.46;101371.47;4959156;28;45510;-54
2023/05/08 04:31:32;;;;;;;;;26.33;24.00;;;;;15.59;66.59;101363.66;4948536;28;46062;-56
2023/05/08 04:33:58;;;;;;;;;30.00;28.67;;;;;15.58;66.91;101361.06;4956104;28;45426;-54
2023/05/08 04:36:28;;;;;;;;;29.00;26.67;;;;;15.57;66.85;101364.66;4957745;28;45520;-54
2023/05/08 04:38:53;;;;;;;;;29.67;29.33;;;;;15.58;66.13;101369.91;4958013;28;45399;-55
2023/05/08 04:41:20;;;;;;;;;22.33;22.33;;;;;15.57;66.32;101364.66;4958094;28;46037;-55
2023/05/08 04:43:45;;;;;;;;;30.00;27.00;;;;;15.54;67.24;101362.13;4958666;28;45494;-56
2023/05/08 04:46:11;;;;;;;;;28.00;24.67;;;;;15.54;67.30;101364.78;4955343;28;45410;-56
2023/05/08 04:48:36;;;;;;;;;26.00;25.00;;;;;15.53;67.03;101371.91;4948550;28;45430;-55
2023/05/08 04:51:01;;;;;;;;;28.33;24.67;;;;;15.55;66.69;101366.50;4957419;28;45506;-55
2023/05/08 04:53:27;;;;;;;;;29.67;26.67;;;;;15.53;66.81;101369.25;4958710;28;50650;-58
2023/05/08 04:55:52;;;;;;;;;26.67;25.33;;;;;15.55;67.13;101369.16;4957396;28;45471;-55
2023/05/08 04:58:17;;;;;;;;;25.67;22.33;;;;;15.55;66.53;101364.72;4957059;28;51201;-56
2023/05/08 05:00:43;;;;;;;;;26.00;26.00;;;;;15.60;67.54;101372.47;4957149;28;55902;-56
2023/05/08 05:03:08;;;;;;;;;26.33;23.00;;;;;15.60;67.26;101377.78;4956644;28;47575;-55
2023/05/08 05:05:34;;;;;;;;;26.67;23.33;;;;;15.58;66.88;101374.31;4958854;28;45482;-54
2023/05/08 05:08:00;;;;;;;;;18.33;18.33;;;;;15.56;67.06;101371.75;4958451;28;45568;-55
2023/05/08 05:10:25;;;;;;;;;21.33;21.33;;;;;15.61;67.51;101388.31;4954562;28;46057;-54
2023/05/08 05:12:50;;;;;;;;;20.00;16.67;;;;;15.61;66.70;101387.47;4949839;28;45469;-56
2023/05/08 05:15:16;;;;;;;;;22.33;22.33;;;;;15.57;66.27;101389.38;4955461;28;45410;-56
2023/05/08 05:17:41;;;;;;;;;21.00;19.33;;;;;15.55;66.24;101391.22;4958407;28;45399;-56
2023/05/08 05:20:07;;;;;;;;;27.33;25.00;;;;;15.58;66.73;101404.38;4958256;28;46142;-53
2023/05/08 05:22:33;;;;;;;;;22.33;22.33;;;;;15.58;66.15;101403.47;4958598;28;45375;-56
2023/05/08 05:24:58;;;;;;;;;21.00;19.33;;;;;15.59;66.93;101411.38;4958381;28;45339;-56
2023/05/08 05:27:24;;;;;;;;;29.00;25.00;;;;;15.58;66.52;101401.72;4958272;28;45642;-56
2023/05/08 05:29:49;;;;;;;;;25.33;25.33;;;;;15.60;67.38;101407.78;4949476;28;45487;-55
2023/05/08 05:32:15;;;;;;;;;23.33;22.00;;;;;15.64;66.33;101408.53;4954994;28;45467;-55
2023/05/08 05:34:40;;;;;;;;;20.67;20.67;;;;;15.67;66.93;101405.75;4958351;28;45427;-55
2023/05/08 05:37:06;;;;;;;;;24.00;21.00;;;;;15.64;66.58;101416.50;4956904;28;45690;-55
2023/05/08 05:39:31;;;;;;;;;20.33;20.33;;;;;15.65;65.79;101420.88;4957876;28;45928;-56
2023/05/08 05:41:56;;;;;;;;;17.67;17.33;;;;;15.65;66.78;101418.22;4957972;28;45501;-56
2023/05/08 05:44:22;;;;;;;;;20.33;20.33;;;;;15.66;65.86;101420.81;4957882;28;45522;-56
2023/05/08 05:46:47;;;;;;;;;25.00;22.00;;;;;15.62;65.92;101410.41;4958080;28;45485;-55
2023/05/08 05:49:12;;;;;;;;;25.00;22.00;;;;;15.63;66.52;101412.97;4957999;28;46162;-55
2023/05/08 05:51:38;;;;;;;;;27.33;24.33;;;;;15.66;65.91;101419.91;4957582;28;45497;-56
2023/05/08 05:54:03;;;;;;;;;24.00;21.00;;;;;15.69;65.70;101422.50;4957202;28;45442;-56
2023/05/08 05:56:29;;;;;;;;;20.00;19.00;;;;;15.71;66.14;101425.06;4957878;28;45423;-56
2023/05/08 05:58:54;;;;;;;;;19.67;17.67;;;;;15.72;66.43;101416.19;4957735;28;45456;-56
2023/05/08 06:01:19;;;;;;;;;21.67;20.00;;;;;15.76;65.59;101436.34;4956906;28;57826;-56
2023/05/08 06:03:45;;;;;;;;;18.33;18.00;;;;;15.75;65.82;101431.97;4956164;28;45447;-56
2023/05/08 06:06:11;;;;;;;;;20.00;18.00;;;;;15.73;65.46;101436.47;4957345;28;45640;-55
2023/05/08 06:08:36;;;;;;;;;23.00;21.67;;;;;15.74;65.82;101444.34;4955285;28;46099;-55
2023/05/08 06:11:02;;;;;;;;;20.00;18.67;;;;;15.73;66.65;101441.78;4957444;28;45435;-56
2023/05/08 06:13:27;;;;;;;;;18.67;15.67;;;;;15.72;66.12;101442.72;4957546;28;45502;-55
2023/05/08 06:15:55;;;;;;;;;23.67;21.67;;;;;15.75;65.46;101447.88;4956050;28;45364;-55
2023/05/08 06:18:20;;;;;;;;;17.33;16.33;;;;;15.75;65.48;101455.84;4957128;28;46025;-55
2023/05/08 06:20:46;;;;;;;;;15.67;15.67;;;;;15.71;65.71;101447.13;4957215;28;45461;-56
2023/05/08 06:23:12;;;;;;;;;17.33;16.33;;;;;15.75;66.06;101453.19;4955676;28;45494;-58
2023/05/08 06:25:37;;;;;;;;;22.00;18.00;;;;;15.73;65.50;101449.75;4957088;28;45590;-58
2023/05/08 06:28:05;;;;;;;;;14.33;13.00;;;;;15.74;66.08;101449.66;4956546;28;46119;-58
2023/05/08 06:30:30;;;;;;;;;20.67;20.67;;;;;15.76;65.99;101452.25;4955890;28;45341;-58
2023/05/08 06:32:56;;;;;;;;;15.67;14.00;;;;;15.76;65.79;101450.47;4956959;28;45460;-58
2023/05/08 06:35:21;;;;;;;;;18.67;16.00;;;;;15.77;65.70;101461.94;4955368;28;45605;-58
2023/05/08 06:37:47;;;;;;;;;16.67;14.67;;;;;15.80;65.31;101461.81;4955605;28;46024;-58
2023/05/08 06:40:12;;;;;;;;;15.33;14.00;;;;;15.74;65.42;101462.91;4956874;28;45599;-58
2023/05/08 06:42:38;;;;;;;;;17.33;16.67;;;;;15.73;66.36;101457.69;4954902;28;45553;-58
2023/05/08 06:45:04;;;;;;;;;19.33;16.00;;;;;15.70;66.62;101449.88;4956802;28;45395;-56
2023/05/08 06:47:29;;;;;;;;;19.33;18.67;;;;;15.73;66.27;101452.41;4955071;28;45638;-55
2023/05/08 06:49:54;;;;;;;;;20.00;17.00;;;;;15.72;65.66;101440.06;4956476;28;45470;-57
2023/05/08 06:52:20;;;;;;;;;23.33;21.67;;;;;15.76;65.90;101450.47;4951641;28;45990;-57
2023/05/08 06:54:45;;;;;;;;;16.00;16.00;;;;;15.75;65.92;101454.06;4955607;28;45428;-64
2023/05/08 06:57:13;;;;;;;;;18.00;17.67;;;;;15.76;66.51;101455.75;4956404;28;45834;-63
2023/05/08 06:59:39;;;;;;;;;16.00;16.00;;;;;15.80;65.70;101453.88;4955108;28;45462;-64
2023/05/08 07:02:04;;;;;;;;;22.33;18.33;;;;;15.80;65.83;101472.44;4948340;28;45603;-65
2023/05/08 07:04:29;;;;;;;;;19.00;16.33;;;;;15.78;65.71;101466.31;4955097;28;45680;-62
2023/05/08 07:06:55;;;;;;;;;17.67;17.67;;;;;15.76;66.29;101470.81;4954255;28;46472;-61
2023/05/08 07:09:20;;;;;;;;;15.67;14.00;;;;;15.75;66.18;101469.97;4955331;28;61899;-60
2023/05/08 07:11:46;;;;;;;;;18.00;17.00;;;;;15.77;66.43;101469.88;4956251;28;45376;-62
2023/05/08 07:14:12;;;;;;;;;17.00;16.00;;;;;15.79;65.66;101479.50;4956057;28;45495;-63
2023/05/08 07:16:38;;;;;;;;;16.33;16.33;;;;;15.83;65.54;101477.59;4954655;28;45384;-61
2023/05/08 07:19:03;;;;;;;;;20.00;19.00;;;;;15.82;65.85;101479.34;4955927;28;45431;-61
2023/05/08 07:21:29;;;;;;;;;20.33;19.33;;;;;15.84;65.22;101489.91;4955875;28;45367;-60
2023/05/08 07:23:55;;;;;;;;;20.00;20.00;;;;;15.81;65.55;101490.91;4955570;28;45555;-59
2023/05/08 07:26:21;;;;;;;;;15.67;15.67;;;;;15.77;65.31;101492.00;4955789;28;46207;-60
2023/05/08 07:28:47;;;;;;;;;18.00;17.00;;;;;15.74;65.96;101496.53;4954532;28;45442;-55
2023/05/08 07:31:12;;;;;;;;;16.67;15.33;;;;;15.71;65.82;101484.28;4955851;28;45603;-55
2023/05/08 07:33:37;;;;;;;;;21.67;20.67;;;;;15.71;65.57;101486.94;4955508;28;45819;-61
2023/05/08 07:36:03;;;;;;;;;20.33;18.67;;;;;15.73;65.78;101492.19;4955501;28;46433;-61
2023/05/08 07:38:28;;;;;;;;;18.00;18.00;;;;;15.74;65.17;101500.06;4944746;28;45635;-52
2023/05/08 07:40:56;;;;;;;;;15.00;14.00;;;;;15.74;65.42;101507.16;4953699;28;45512;-52
2023/05/08 07:43:22;;;;;;;;;12.67;11.67;;;;;15.75;65.54;101507.09;4945973;28;45474;-58
2023/05/08 07:45:48;;;;;;;;;17.00;17.00;;;;;15.73;65.31;101502.78;4942741;28;46306;-58
2023/05/08 07:48:13;;;;;;;;;17.33;16.67;;;;;15.75;66.10;101507.09;4955198;28;45469;-58
2023/05/08 07:50:38;;;;;;;;;14.67;14.00;;;;;15.78;65.15;101509.63;4955551;28;45427;-58
2023/05/08 07:53:04;;;;;;;;;16.33;16.33;;;;;15.79;65.26;101502.50;4954794;28;47055;-58
2023/05/08 07:55:29;;;;;;;;;16.00;14.00;;;;;15.81;64.60;101505.97;4954310;28;45364;-58
2023/05/08 07:57:54;;;;;;;;;18.00;18.00;;;;;15.84;65.34;101511.13;4955424;28;45510;-57
2023/05/08 08:00:20;;;;;;;;;15.00;14.33;;;;;15.86;64.78;101509.28;4955634;28;45528;-57
2023/05/08 08:02:45;;;;;;;;;17.67;15.67;;;;;15.88;64.64;101505.66;4955548;28;45390;-58
2023/05/08 08:05:11;;;;;;;;;17.67;17.67;;;;;15.90;65.27;101513.53;4954961;28;45422;-57
2023/05/08 08:07:36;;;;;;;;;18.33;14.00;;;;;15.94;65.32;101520.44;4955492;28;45457;-58
2023/05/08 08:10:03;;;;;;;;;16.33;15.33;;;;;15.96;64.69;101515.94;4952265;28;45498;-57
2023/05/08 08:12:29;;;;;;;;;15.33;15.33;;;;;15.96;64.71;101515.94;4955107;28;45455;-57
2023/05/08 08:14:55;;;;;;;;;16.00;15.00;;;;;16.02;64.26;101517.47;4955485;28;45459;-57
2023/05/08 08:17:21;;;;;;;;;16.33;15.00;;;;;16.06;64.73;101519.03;4944162;28;45503;-56
2023/05/08 08:19:46;;;;;;;;;14.33;14.00;;;;;16.09;64.06;101526.84;4969558;28;45406;-60
2023/05/08 08:22:11;;;;;;;;;14.67;13.67;;;;;16.08;64.43;101523.34;4958389;28;45458;-60
2023/05/08 08:24:37;;;;;;;;;14.33;14.33;;;;;16.11;64.16;101512.59;4958538;28;45415;-61
2023/05/08 08:27:03;;;;;;;;;18.00;16.67;;;;;16.16;64.86;101515.06;4957614;28;50156;-59
2023/05/08 08:29:28;;;;;;;;;13.33;12.00;;;;;16.19;64.72;101506.94;4958650;28;45501;-59
2023/05/08 08:31:54;;;;;;;;;15.67;15.67;;;;;16.22;64.38;101516.56;4958060;28;45493;-61
2023/05/08 08:34:19;;;;;;;;;17.33;14.67;;;;;16.25;64.40;101516.44;4958211;28;46047;-61
2023/05/08 08:36:44;;;;;;;;;17.33;16.00;;;;;16.26;64.12;101516.38;4958052;28;45394;-62
2023/05/08 08:39:10;;;;;;;;;12.67;12.67;;;;;16.27;64.72;101518.09;4957654;28;45437;-61
2023/05/08 08:41:38;;;;;;;;;12.00;12.00;;;;;16.27;64.24;101512.78;4957105;28;45632;-60
2023/05/08 08:44:04;;;;;;;;;14.67;13.67;;;;;16.29;64.12;101513.59;4957794;28;46094;-61
2023/05/08 08:46:33;;;;;;;;;14.00;14.00;;;;;16.34;64.08;101516.91;4956729;28;45465;-61
2023/05/08 08:49:03;;;;;;;;;17.67;15.00;;;;;16.33;64.15;101515.19;4957987;28;45455;-59
2023/05/08 08:51:35;;;;;;;;;13.67;12.33;;;;;16.33;63.64;101525.81;4958139;28;45427;-63
2023/05/08 08:54:10;;;;;;;;;14.33;14.00;;;;;16.32;64.36;101526.72;4958019;28;46618;-62
2023/05/08 08:56:38;;;;;;;;;16.50;15.00;;;;;16.38;64.33;101527.38;4958252;28;45453;-62
2023/05/08 08:59:04;;;;;;;;;15.00;13.67;;;;;16.42;63.33;101528.97;4957454;28;45494;-60
2023/05/08 09:01:34;;;;;;;;;11.00;11.00;;;;;16.44;63.47;101524.44;4955855;28;45553;-65
2023/05/08 09:04:00;;;;;;;;;15.33;13.00;;;;;16.47;63.96;101525.19;4956621;28;46100;-58
2023/05/08 09:06:26;;;;;;;;;18.00;15.00;;;;;16.47;63.74;101522.53;4957794;28;45488;-56
2023/05/08 09:08:55;;;;;;;;;14.00;12.00;;;;;16.49;63.68;101528.59;4956425;28;45481;-56
2023/05/08 09:11:20;;;;;;;;;15.33;13.00;;;;;16.50;63.63;101538.31;4957284;28;45545;-56
2023/05/08 09:13:45;;;;;;;;;13.67;12.67;;;;;16.50;63.37;101540.13;4954830;28;60658;-56
2023/05/08 09:16:11;;;;;;;;;14.67;14.00;;;;;16.49;63.13;101541.88;4957460;28;45407;-57
2023/05/08 09:18:36;;;;;;;;;11.33;10.33;;;;;16.46;63.01;101539.38;4956615;28;45388;-56
2023/05/08 09:21:05;;;;;;;;;16.67;15.00;;;;;16.43;63.37;101536.84;4954437;28;45713;-56
2023/05/08 09:23:30;;;;;;;;;13.33;13.33;;;;;16.35;63.49;101531.88;4957503;28;46035;-55
2023/05/08 09:25:55;;;;;;;;;14.67;14.00;;;;;16.37;64.18;101531.81;4957983;28;45478;-57
2023/05/08 09:28:23;;;;;;;;;16.00;13.00;;;;;16.39;63.94;101539.69;4956459;28;59404;-55
2023/05/08 09:30:49;;;;;;;;;15.00;13.00;;;;;16.38;64.32;101533.53;4957599;28;45578;-56
2023/05/08 09:33:15;;;;;;;;;11.00;11.00;;;;;16.38;63.62;101535.34;4957482;28;45500;-55
2023/05/08 09:35:40;;;;;;;;;16.33;14.67;;;;;16.37;63.74;101526.53;4957538;28;45396;-57
2023/05/08 09:38:05;;;;;;;;;13.00;12.00;;;;;16.39;63.88;101529.09;4957819;28;45789;-57
2023/05/08 09:40:31;;;;;;;;;15.33;15.33;;;;;16.43;64.08;101520.91;4957479;28;45500;-55
2023/05/08 09:42:57;;;;;;;;;12.67;11.67;;;;;16.46;63.49;101510.16;4956080;28;46263;-57
2023/05/08 09:45:30;;;;;;;;;13.67;12.00;;;;;16.47;62.98;101511.91;4957623;28;45479;-56
2023/05/08 09:47:56;;;;;;;;;12.67;11.33;;;;;16.52;62.90;101522.28;4957259;28;45506;-56
2023/05/08 09:50:21;;;;;;;;;12.00;12.00;;;;;16.54;62.98;101517.78;4957581;28;45427;-54
2023/05/08 09:52:48;;;;;;;;;11.67;10.00;;;;;16.53;62.65;101514.28;4957232;28;45503;-55
2023/05/08 09:55:13;;;;;;;;;12.67;12.67;;;;;16.59;61.70;101513.13;4957371;28;45552;-59
2023/05/08 09:57:59;;;;;;;;;14.33;11.67;;;;;16.64;62.62;101507.59;4957480;28;45482;-55
2023/05/08 10:00:26;;;;;;;;;11.33;10.33;;;;;16.65;62.40;101494.25;4957371;28;45466;-53
2023/05/08 10:03:00;;;;;;;;;8.33;8.33;;;;;16.70;61.71;101494.03;4956971;28;45470;-52
2023/05/08 10:05:30;;;;;;;;;11.00;11.00;;;;;16.74;61.99;101499.16;4957219;28;45439;-55
2023/05/08 10:08:22;;;;;;;;;11.33;10.67;;;;;16.76;61.89;101494.63;4972005;28;45458;-53
2023/05/08 10:10:48;;;;;;;;;9.00;9.00;;;;;16.79;61.29;101483.00;4957241;28;45362;-53
2023/05/08 10:13:13;;;;;;;;;13.67;11.33;;;;;16.79;61.66;101493.63;4956758;28;46043;-55
2023/05/08 10:15:43;;;;;;;;;9.67;9.67;;;;;16.81;61.90;101489.09;4957340;28;45542;-56
2023/05/08 10:18:10;;;;;;;;;9.00;9.00;;;;;16.84;61.54;101486.31;4955778;28;45506;-56
2023/05/08 10:20:45;;;;;;;;;11.00;11.00;;;;;16.89;61.61;101480.78;4957036;28;45482;-56
2023/05/08 10:23:16;;;;;;;;;12.00;12.00;;;;;16.91;61.84;101478.91;4956402;28;45572;-54
2023/05/08 10:25:44;;;;;;;;;8.00;8.00;;;;;16.98;61.28;101480.34;4956924;28;45538;-56
2023/05/08 10:28:21;;;;;;;;;13.00;10.00;;;;;16.99;60.58;101476.75;4956945;28;45371;-54
2023/05/08 10:30:48;;;;;;;;;8.67;8.00;;;;;16.91;60.95;101457.66;4955926;28;45557;-53
2023/05/08 10:33:14;;;;;;;;;8.67;8.67;;;;;17.05;61.34;101471.13;4956232;28;45553;-56
2023/05/08 10:35:41;;;;;;;;;15.00;13.67;;;;;17.09;60.89;101469.22;4956245;28;45499;-56
2023/05/08 10:38:10;;;;;;;;;9.33;8.00;;;;;17.15;61.38;101469.75;4956976;28;45394;-55
2023/05/08 10:40:37;;;;;;;;;10.00;10.00;;;;;17.21;60.79;101469.44;4954240;28;45599;-56
2023/05/08 10:43:04;;;;;;;;;10.33;9.00;;;;;17.27;60.64;101475.41;4956610;28;46430;-55
2023/05/08 10:45:30;;;;;;;;;8.33;7.00;;;;;17.30;59.80;101470.81;4956630;28;45471;-57
2023/05/08 10:48:31;;;;;;;;;10.67;9.00;;;;;17.30;60.02;101460.19;4956310;28;45418;-56
2023/05/08 10:51:25;;;;;;;;;10.67;9.00;;;;;17.39;59.95;101465.03;4955596;28;45596;-56
2023/05/08 10:54:14;;;;;;;;;14.67;11.33;;;;;17.47;59.92;101456.66;4955106;28;46433;-55
2023/05/08 10:56:40;;;;;;;;;8.33;8.33;;;;;17.52;59.39;101456.44;4956618;28;45584;-57
2023/05/08 10:59:05;;;;;;;;;10.33;10.33;;;;;17.54;60.09;101450.06;4956046;28;45843;-56
2023/05/08 11:01:30;;;;;;;;;8.33;8.33;;;;;17.59;60.20;101448.03;4956410;28;46932;-57
2023/05/08 11:03:56;;;;;;;;;7.67;7.67;;;;;17.65;60.50;101437.09;4956147;28;45395;-56
2023/05/08 11:06:47;;;;;;;;;8.00;8.00;;;;;17.74;59.54;101432.25;4956083;28;45450;-58
2023/05/08 11:09:20;;;;;;;;;7.67;7.67;;;;;17.79;59.72;101425.78;4956597;28;45509;-55
2023/05/08 11:11:59;;;;;;;;;11.00;11.00;;;;;17.83;59.16;101431.78;4970455;28;45454;-57
2023/05/08 11:14:25;;;;;;;;;9.33;8.00;;;;;17.86;58.93;101419.19;4956219;28;46331;-57
2023/05/08 11:16:53;;;;;;;;;9.33;8.00;;;;;17.91;59.42;101421.59;4954998;28;45355;-57